Lerwick, United Kingdom
Current Conditions -  °F | °C
As of 4:50 PM on Tuesday 27 Jan 2015 (Local Time) from EGPB Reporting Station
Broken Clouds Broken Clouds  
Wind Chill:   Ceiling: 1200
Heat Index:   Visibility: 4mi
Dew Point:   Wind: 30mph
Humidity: 93%   Direction: 240°WSW
Pressure: 29.68"   Gusts: NA
Location:  60.15°N, 1.15°W
Report Text: EGPB 271650Z 24026KT 6000 SCT009 BKN012 08/07 Q1005 TEMPO 4000 RADZ BKN009
Loading
Personal Weather Stations






























Interactive Weather Map New forecast layout! Learn more

10-Day Weather Forecast

Advertisements
Track Severe Weather on mobile